Time;durP1;ratioP1;P1;durP2;ratioP2;P2;SDS_P1;SDS_P2;PMS_P1;PMS_P2;Temp;Humidity;BMP_temperature;BMP_pressure;BME280_temperature;BME280_humidity;BME280_pressure;Samples;Min_cycle;Max_cycle;Signal;HPM_P1;HPM_P2
2023/07/08 00:00:16;;;;;;;0.70;0.70;;;;;;;24.62;81.22;99324.53;5071256;28;20622;-71
2023/07/08 00:02:43;;;;;;;2.47;1.17;;;;;;;24.59;81.14;99316.16;5071755;28;20195;-71
2023/07/08 00:05:11;;;;;;;0.80;0.80;;;;;;;24.62;81.58;99321.13;5069286;28;20288;-70
2023/07/08 00:07:38;;;;;;;0.90;0.90;;;;;;;24.57;81.58;99316.28;5069633;28;20648;-70
2023/07/08 00:10:17;;;;;;;1.13;1.03;;;;;;;24.57;81.39;99318.91;5070759;28;20196;-70
2023/07/08 00:12:45;;;;;;;0.87;0.87;;;;;;;24.55;81.79;99323.47;5072724;28;20211;-71
2023/07/08 00:15:13;;;;;;;0.97;0.93;;;;;;;24.38;81.86;99297.91;5071943;28;20192;-70
2023/07/08 00:17:40;;;;;;;1.03;1.03;;;;;;;24.55;81.63;99326.91;5072276;28;20596;-71
2023/07/08 00:20:14;;;;;;;0.73;0.73;;;;;;;24.49;81.83;99321.38;5071744;28;20261;-70
2023/07/08 00:22:42;;;;;;;1.43;0.77;;;;;;;24.34;82.18;99307.84;5072156;28;20200;-71
2023/07/08 00:25:09;;;;;;;1.07;0.90;;;;;;;24.29;82.81;99314.44;5071678;28;20345;-71
2023/07/08 00:27:36;;;;;;;0.80;0.80;;;;;;;24.27;83.48;99316.34;5072125;28;20553;-71
2023/07/08 00:30:18;;;;;;;0.60;0.60;;;;;;;24.22;82.63;99314.16;5072003;28;20192;-71
2023/07/08 00:32:45;;;;;;;0.80;0.80;;;;;;;24.22;83.78;99313.31;5071757;28;20266;-71
2023/07/08 00:35:14;;;;;;;1.00;1.00;;;;;;;24.17;84.13;99318.16;5071614;28;20193;-71
2023/07/08 00:37:41;;;;;;;0.90;0.80;;;;;;;24.17;84.03;99320.78;5072100;28;20294;-71
2023/07/08 00:40:17;;;;;;;0.80;0.77;;;;;;;24.07;83.96;99323.31;5071429;28;20257;-71
2023/07/08 00:42:45;;;;;;;1.40;1.07;;;;;;;23.95;83.68;99317.34;5067465;28;20199;-71
2023/07/08 00:45:33;;;;;;;1.10;1.10;;;;;;;24.07;83.69;99332.97;5071567;28;20295;-70
2023/07/08 00:48:06;;;;;;;0.73;0.73;;;;;;;24.07;84.16;99332.97;5071951;28;20710;-70
2023/07/08 00:50:33;;;;;;;1.13;1.10;;;;;;;24.01;84.00;99327.28;5070388;28;20291;-71
2023/07/08 00:53:25;;;;;;;0.80;0.80;;;;;;;23.97;84.38;99330.31;5071511;28;20646;-71
2023/07/08 00:55:55;;;;;;;1.07;0.97;;;;;;;23.86;85.06;99335.63;5071569;28;20275;-71
2023/07/08 00:58:24;;;;;;;0.90;0.90;;;;;;;23.83;85.69;99328.06;5071091;28;20381;-70
2023/07/08 01:00:56;;;;;;;1.43;0.70;;;;;;;23.80;86.12;99326.53;5071414;28;20623;-71
2023/07/08 01:03:24;;;;;;;2.20;1.00;;;;;;;23.73;87.10;99330.63;5070637;28;20196;-70
2023/07/08 01:05:52;;;;;;;1.10;1.10;;;;;;;23.69;86.82;99337.06;5071125;28;20216;-71
2023/07/08 01:08:28;;;;;;;0.73;0.73;;;;;;;23.68;86.71;99329.38;5071456;28;20200;-70
2023/07/08 01:11:01;;;;;;;1.10;1.00;;;;;;;23.64;87.49;99334.03;5071100;28;20274;-71
2023/07/08 01:13:31;;;;;;;1.07;1.07;;;;;;;23.61;87.16;99342.16;5070279;28;20204;-70
2023/07/08 01:16:00;;;;;;;1.13;1.13;;;;;;;23.54;87.67;99338.38;5070792;28;20226;-71
2023/07/08 01:18:27;;;;;;;0.83;0.83;;;;;;;23.46;87.56;99330.34;5071060;28;20223;-71
2023/07/08 01:20:55;;;;;;;1.37;1.33;;;;;;;23.36;88.11;99332.84;5070250;28;20204;-71
2023/07/08 01:23:24;;;;;;;1.33;1.33;;;;;;;23.37;87.79;99331.06;5070851;28;20681;-71
2023/07/08 01:25:51;;;;;;;1.20;1.00;;;;;;;23.35;87.58;99328.59;5070395;28;20629;-70
2023/07/08 01:28:18;;;;;;;0.77;0.77;;;;;;;23.32;87.84;99333.25;5069572;28;20196;-71
2023/07/08 01:30:46;;;;;;;0.50;0.50;;;;;;;23.38;87.52;99341.44;5070714;28;20200;-70
2023/07/08 01:33:18;;;;;;;0.90;0.90;;;;;;;23.37;87.33;99342.38;5070323;28;20196;-71
2023/07/08 01:35:46;;;;;;;0.80;0.80;;;;;;;23.29;87.29;99339.59;5070641;28;20227;-70
2023/07/08 01:38:16;;;;;;;0.77;0.77;;;;;;;23.38;87.67;99340.59;5070524;28;20196;-70
2023/07/08 01:40:52;;;;;;;1.13;1.13;;;;;;;23.32;87.44;99338.50;5070184;28;20726;-70
2023/07/08 01:43:18;;;;;;;0.70;0.70;;;;;;;23.33;87.63;99345.38;5069416;28;20199;-71
2023/07/08 01:45:47;;;;;;;1.93;1.27;;;;;;;23.41;86.83;99345.59;5070665;28;20216;-70
2023/07/08 01:48:17;;;;;;;1.67;1.33;;;;;;;23.37;86.54;99336.31;5070462;28;20204;-71
2023/07/08 01:50:49;;;;;;;0.90;0.90;;;;;;;23.38;87.03;99340.59;5070426;28;20196;-70
2023/07/08 01:53:19;;;;;;;0.50;0.50;;;;;;;23.31;86.97;99331.59;5070103;28;20687;-70
2023/07/08 01:55:46;;;;;;;0.90;0.90;;;;;;;23.37;86.55;99339.75;5070256;28;20249;-70
2023/07/08 01:58:14;;;;;;;0.97;0.97;;;;;;;23.27;87.34;99335.41;5070252;28;20200;-70
2023/07/08 02:00:41;;;;;;;1.03;1.00;;;;;;;23.32;86.89;99347.19;5070568;28;20192;-71
2023/07/08 02:03:09;;;;;;;1.03;1.03;;;;;;;23.33;86.69;99350.59;5069091;28;20195;-70
2023/07/08 02:05:36;;;;;;;1.10;1.10;;;;;;;23.33;87.14;99353.22;5069905;28;20245;-71
2023/07/08 02:08:03;;;;;;;0.90;0.90;;;;;;;23.25;86.80;99345.19;5069825;28;20204;-70
2023/07/08 02:10:30;;;;;;;1.90;1.43;;;;;;;23.29;86.71;99359.69;5070610;28;20257;-70
2023/07/08 02:12:56;;;;;;;2.07;1.00;;;;;;;23.24;86.54;99356.59;5070082;28;20196;-70
2023/07/08 02:15:26;;;;;;;1.63;1.10;;;;;;;23.22;87.52;99354.13;5070163;28;20218;-70
2023/07/08 02:17:53;;;;;;;0.90;0.90;;;;;;;23.20;86.86;99366.47;5070051;28;20219;-71
2023/07/08 02:20:20;;;;;;;1.23;1.13;;;;;;;23.15;87.71;99358.19;5069842;28;20266;-70
2023/07/08 02:22:46;;;;;;;0.73;0.73;;;;;;;23.18;87.09;99362.34;5070203;28;20200;-70
2023/07/08 02:25:13;;;;;;;1.13;1.13;;;;;;;23.13;87.73;99357.50;5069700;28;20205;-70
2023/07/08 02:27:40;;;;;;;0.97;0.90;;;;;;;23.10;88.02;99354.31;5070393;28;20227;-71
2023/07/08 02:30:08;;;;;;;0.80;0.80;;;;;;;23.01;88.43;99367.16;5069886;28;20192;-71
2023/07/08 02:32:38;;;;;;;0.70;0.70;;;;;;;22.91;88.25;99357.56;5069225;28;20196;-70
2023/07/08 02:35:06;;;;;;;0.70;0.70;;;;;;;22.94;88.04;99381.69;5072957;28;20196;-69
2023/07/08 02:37:33;;;;;;;1.60;1.50;;;;;;;22.88;88.39;99376.97;5074090;28;20642;-70
2023/07/08 02:39:59;;;;;;;1.20;0.97;;;;;;;22.80;88.48;99373.31;5073991;28;20635;-71
2023/07/08 02:42:26;;;;;;;1.80;1.40;;;;;;;22.84;88.37;99382.59;5073656;28;20676;-70
2023/07/08 02:44:53;;;;;;;1.13;1.10;;;;;;;22.81;88.69;99381.03;5072561;28;20196;-71
2023/07/08 02:47:20;;;;;;;1.10;1.10;;;;;;;22.77;89.55;99377.03;5073273;28;20227;-70
2023/07/08 02:49:48;;;;;;;1.10;1.10;;;;;;;22.73;89.41;99380.81;5073655;28;20200;-71
2023/07/08 02:52:15;;;;;;;1.13;1.13;;;;;;;22.78;89.35;99386.50;5073688;28;20220;-70
2023/07/08 02:54:41;;;;;;;1.20;1.20;;;;;;;22.83;89.33;99389.59;5073502;28;20204;-70
2023/07/08 02:57:08;;;;;;;1.77;1.13;;;;;;;22.86;89.80;99389.34;5071216;28;20196;-71
2023/07/08 02:59:35;;;;;;;1.63;1.30;;;;;;;22.84;89.02;99399.06;5073389;28;20212;-71
2023/07/08 03:02:01;;;;;;;2.60;1.93;;;;;;;22.76;89.29;99383.19;5072444;28;20196;-71
2023/07/08 03:04:30;;;;;;;1.07;1.07;;;;;;;22.81;89.57;99401.94;5072666;28;20192;-70
2023/07/08 03:06:58;;;;;;;1.10;1.00;;;;;;;22.83;88.90;99400.03;5073481;28;20684;-70
2023/07/08 03:09:26;;;;;;;1.43;1.10;;;;;;;22.84;89.70;99396.47;5072951;28;20214;-71
2023/07/08 03:11:53;;;;;;;0.90;0.90;;;;;;;22.81;89.06;99401.94;5072461;28;20214;-71
2023/07/08 03:14:19;;;;;;;1.70;1.70;;;;;;;22.81;88.89;99396.72;5073107;28;20199;-70
2023/07/08 03:16:46;;;;;;;1.33;1.33;;;;;;;22.82;88.50;99398.38;5072747;28;20220;-70
2023/07/08 03:19:15;;;;;;;2.13;1.87;;;;;;;22.88;88.21;99408.34;5073119;28;20703;-70
2023/07/08 03:21:42;;;;;;;1.10;1.07;;;;;;;22.83;88.92;99409.66;5073144;28;20207;-70
2023/07/08 03:24:12;;;;;;;2.03;1.20;;;;;;;22.88;88.71;99410.13;5073138;28;20228;-71
2023/07/08 03:26:38;;;;;;;1.37;1.20;;;;;;;22.93;88.00;99414.03;5072994;28;20308;-70
2023/07/08 03:29:05;;;;;;;1.57;1.47;;;;;;;22.94;87.62;99413.06;5072449;28;20204;-70
2023/07/08 03:31:32;;;;;;;2.87;1.00;;;;;;;22.96;87.95;99413.78;5072931;28;20207;-71
2023/07/08 03:33:59;;;;;;;1.37;1.37;;;;;;;22.97;88.16;99420.66;5072678;28;20203;-70
2023/07/08 03:36:26;;;;;;;1.20;1.20;;;;;;;22.93;87.30;99421.88;5073115;28;20200;-71
2023/07/08 03:38:56;;;;;;;1.60;1.40;;;;;;;22.76;88.72;99398.03;5072575;28;20200;-71
2023/07/08 03:41:25;;;;;;;1.80;1.23;;;;;;;22.88;88.37;99424.03;5072632;28;20236;-71
2023/07/08 03:43:51;;;;;;;1.20;0.83;;;;;;;22.84;88.06;99422.59;5072610;28;20656;-71
2023/07/08 03:46:20;;;;;;;1.00;1.00;;;;;;;22.90;nan;99427.34;5072236;28;20211;-70
2023/07/08 03:48:47;;;;;;;0.87;0.87;;;;;;;22.93;88.23;99436.72;5072931;28;20234;-71
2023/07/08 03:51:23;;;;;;;1.30;1.20;;;;;;;22.94;87.87;99438.41;5072683;28;20553;-70
2023/07/08 03:53:51;;;;;;;1.50;1.40;;;;;;;22.97;87.79;99438.97;5072465;28;20200;-71
2023/07/08 03:56:18;;;;;;;1.43;1.03;;;;;;;22.96;87.50;99445.16;5072341;28;20200;-70
2023/07/08 03:58:46;;;;;;;1.47;0.90;;;;;;;22.95;87.72;99446.09;5072672;28;20210;-71
2023/07/08 04:01:16;;;;;;;1.90;1.23;;;;;;;22.95;87.48;99451.34;5072407;28;20596;-70
2023/07/08 04:03:44;;;;;;;2.03;1.90;;;;;;;23.01;87.08;99445.59;5069856;28;20231;-70
2023/07/08 04:06:11;;;;;;;0.97;0.97;;;;;;;23.07;87.63;99446.09;5072033;28;20257;-70
2023/07/08 04:08:38;;;;;;;1.60;1.50;;;;;;;23.07;87.43;99459.16;5072260;28;20195;-70
2023/07/08 04:11:05;;;;;;;1.03;1.03;;;;;;;23.08;87.18;99458.19;5071845;28;20258;-71
2023/07/08 04:13:32;;;;;;;1.77;1.67;;;;;;;22.97;86.63;99444.19;5072498;28;20188;-70
2023/07/08 04:16:03;;;;;;;1.57;1.47;;;;;;;23.05;87.10;99469.72;5071429;28;20680;-70
2023/07/08 04:18:30;;;;;;;0.97;0.97;;;;;;;23.12;86.91;99472.69;5071114;28;20204;-70
2023/07/08 04:20:57;;;;;;;1.10;1.10;;;;;;;23.18;86.91;99475.63;5071748;28;20196;-71
2023/07/08 04:23:24;;;;;;;1.20;1.20;;;;;;;23.30;87.07;99474.63;5071851;28;20192;-70
2023/07/08 04:25:55;;;;;;;0.93;0.93;;;;;;;23.39;86.19;99471.25;5071822;28;20200;-69
2023/07/08 04:28:22;;;;;;;2.33;1.20;;;;;;;23.57;85.15;99468.97;5071161;28;20695;-70
2023/07/08 04:30:49;;;;;;;1.10;1.10;;;;;;;23.67;84.48;99475.13;5071750;28;20203;-70
2023/07/08 04:33:18;;;;;;;1.83;1.23;;;;;;;23.89;83.92;99467.13;5071006;28;20204;-70
2023/07/08 04:35:45;;;;;;;1.53;1.43;;;;;;;24.07;82.94;99463.94;5071646;28;20200;-70
2023/07/08 04:38:17;;;;;;;1.50;1.10;;;;;;;24.29;83.54;99455.94;5071398;28;20271;-70
2023/07/08 04:40:44;;;;;;;1.27;1.20;;;;;;;24.54;82.20;99460.72;5071752;28;20235;-70
2023/07/08 04:43:11;;;;;;;1.37;1.27;;;;;;;24.58;80.71;99446.38;5071484;28;20199;-70
2023/07/08 04:45:39;;;;;;;0.97;0.97;;;;;;;24.78;79.66;99453.31;5070606;28;20287;-70
2023/07/08 04:48:12;;;;;;;1.47;1.37;;;;;;;24.93;79.26;99454.63;5070852;28;20628;-71
2023/07/08 04:50:41;;;;;;;2.50;1.43;;;;;;;25.17;79.62;99453.44;5071034;28;20683;-70
2023/07/08 04:53:08;;;;;;;4.23;1.50;;;;;;;25.31;75.96;99453.00;5071206;28;20722;-71
2023/07/08 04:55:35;;;;;;;1.30;1.27;;;;;;;25.49;76.33;99448.72;5071041;28;20291;-69
2023/07/08 04:58:02;;;;;;;1.60;1.50;;;;;;;25.64;75.29;99446.53;5066391;28;20207;-71
2023/07/08 05:00:30;;;;;;;1.10;1.10;;;;;;;25.80;74.09;99447.59;5069236;28;20636;-71
2023/07/08 05:02:57;;;;;;;1.90;1.20;;;;;;;25.66;73.24;99448.03;5070117;28;20203;-70
2023/07/08 05:05:24;;;;;;;1.53;1.43;;;;;;;25.55;73.46;99448.19;5069504;28;20265;-70
2023/07/08 05:07:52;;;;;;;1.87;1.37;;;;;;;25.58;74.04;99447.91;5070849;28;20227;-70
2023/07/08 05:10:20;;;;;;;2.07;1.17;;;;;;;25.64;72.76;99446.53;5069698;28;20204;-71
2023/07/08 05:12:48;;;;;;;1.60;1.50;;;;;;;25.53;73.61;99444.88;5070515;28;20266;-70
2023/07/08 05:15:16;;;;;;;1.50;1.40;;;;;;;25.77;72.65;99453.13;5070035;28;20199;-70
2023/07/08 05:17:43;;;;;;;1.40;1.30;;;;;;;25.95;72.69;99446.19;5068557;28;20242;-70
2023/07/08 05:20:12;;;;;;;1.43;1.33;;;;;;;25.89;71.37;99454.63;5070703;28;20207;-70
2023/07/08 05:22:39;;;;;;;0.97;0.97;;;;;;;25.97;72.49;99452.13;5069902;28;20238;-71
2023/07/08 05:25:08;;;;;;;1.23;0.90;;;;;;;25.91;71.55;99444.00;5070607;28;20204;-71
2023/07/08 05:27:35;;;;;;;1.07;1.07;;;;;;;26.05;72.43;99449.59;5069477;28;20220;-70
2023/07/08 05:30:02;;;;;;;0.97;0.97;;;;;;;26.32;73.22;99442.78;5069670;28;20208;-70
2023/07/08 05:32:29;;;;;;;2.10;1.37;;;;;;;26.47;70.98;99446.56;5068874;28;20231;-71
2023/07/08 05:34:56;;;;;;;2.53;0.93;;;;;;;26.43;68.78;99450.47;5070299;28;20208;-71
2023/07/08 05:37:25;;;;;;;1.93;1.60;;;;;;;26.36;70.26;99444.16;5070418;28;20208;-71
2023/07/08 05:39:52;;;;;;;1.07;1.07;;;;;;;26.48;70.53;99440.34;5069519;28;20200;-70
2023/07/08 05:42:21;;;;;;;1.30;0.83;;;;;;;26.81;70.83;99439.78;5068119;28;20207;-68
2023/07/08 05:44:47;;;;;;;1.20;1.10;;;;;;;27.02;68.67;99445.56;5067748;28;20214;-72
2023/07/08 05:47:15;;;;;;;1.17;1.17;;;;;;;26.96;69.70;99433.03;5068868;28;20211;-72
2023/07/08 05:49:42;;;;;;;1.13;1.13;;;;;;;26.69;67.13;99435.66;5069024;28;20652;-71
2023/07/08 05:52:11;;;;;;;0.90;0.90;;;;;;;26.76;67.76;99426.19;5070248;28;20604;-72
2023/07/08 05:54:38;;;;;;;1.63;1.52;;;;;;;26.84;69.52;99428.13;5069021;28;20469;-65
2023/07/08 05:57:06;;;;;;;1.57;1.47;;;;;;;27.00;65.71;99423.88;5068261;28;20282;-65
2023/07/08 05:59:35;;;;;;;4.57;1.80;;;;;;;27.12;66.53;99432.34;5070732;28;20207;-64
2023/07/08 06:02:02;;;;;;;1.90;1.03;;;;;;;27.41;63.71;99432.09;5070601;28;20196;-65
2023/07/08 06:04:30;;;;;;;1.57;1.20;;;;;;;27.44;64.24;99427.41;5070340;28;20226;-65
2023/07/08 06:06:57;;;;;;;1.60;1.30;;;;;;;27.66;62.71;99425.28;5070703;28;20715;-66
2023/07/08 06:09:24;;;;;;;1.20;1.10;;;;;;;27.59;63.10;99415.31;5070612;28;20211;-66
2023/07/08 06:11:51;;;;;;;0.87;0.87;;;;;;;27.55;62.58;99410.53;5070475;28;20204;-66
2023/07/08 06:14:18;;;;;;;1.73;1.33;;;;;;;27.24;64.61;99419.81;5067813;28;20265;-65
2023/07/08 06:16:46;;;;;;;1.97;1.10;;;;;;;27.36;64.39;99421.22;5069851;28;20289;-65
2023/07/08 06:19:14;;;;;;;1.33;1.23;;;;;;;27.36;64.49;99405.41;5069995;28;20242;-65
2023/07/08 06:21:41;;;;;;;1.20;1.10;;;;;;;27.76;62.27;99431.25;5068173;28;20206;-65
2023/07/08 06:24:08;;;;;;;0.77;0.77;;;;;;;27.93;63.15;99422.47;5070842;28;20219;-65
2023/07/08 06:26:35;;;;;;;1.00;1.00;;;;;;;28.09;62.18;99423.41;5070951;28;20196;-65
2023/07/08 06:29:02;;;;;;;0.73;0.73;;;;;;;28.13;60.61;99423.94;5070495;28;20290;-65
2023/07/08 06:31:29;;;;;;;0.80;0.80;;;;;;;28.37;60.92;99425.88;5070726;28;20196;-65
2023/07/08 06:33:58;;;;;;;1.40;1.27;;;;;;;28.66;55.96;99423.66;5070658;28;20192;-65
2023/07/08 06:36:25;;;;;;;6.60;0.80;;;;;;;28.87;56.08;99428.50;5070388;28;20200;-65
2023/07/08 06:38:51;;;;;;;1.00;0.80;;;;;;;29.11;55.86;99437.28;5070713;28;20203;-66
2023/07/08 06:41:18;;;;;;;0.93;0.83;;;;;;;29.35;55.58;99423.31;5070647;28;20192;-65
2023/07/08 06:43:45;;;;;;;1.08;0.90;;;;;;;29.44;55.31;99427.59;5070449;28;20267;-65
2023/07/08 06:46:12;;;;;;;0.75;0.75;;;;;;;29.48;54.34;99433.38;5070291;28;20192;-64
2023/07/08 06:48:39;;;;;;;0.70;0.70;;;;;;;29.52;54.90;99434.72;5070048;28;20216;-65
2023/07/08 06:51:08;;;;;;;6.10;0.70;;;;;;;29.53;53.31;99436.38;5070713;28;20668;-66
2023/07/08 06:53:34;;;;;;;0.70;0.70;;;;;;;29.44;54.27;99439.97;5070272;28;20224;-64
2023/07/08 06:56:01;;;;;;;0.93;0.93;;;;;;;29.40;54.04;99414.91;5070870;28;20576;-64
2023/07/08 06:58:28;;;;;;;0.47;0.47;;;;;;;29.79;53.92;99436.97;5069276;28;20219;-64
2023/07/08 07:00:55;;;;;;;0.55;0.55;;;;;;;30.05;51.43;99432.34;5069861;28;20269;-65
2023/07/08 07:03:22;;;;;;;1.08;1.08;;;;;;;30.01;51.63;99440.78;5070209;28;20196;-65
2023/07/08 07:05:49;;;;;;;0.73;0.73;;;;;;;30.06;54.39;99449.84;5070071;28;20200;-64
2023/07/08 07:08:17;;;;;;;0.70;0.70;;;;;;;30.07;51.60;99451.50;5070522;28;20216;-64
2023/07/08 07:10:44;;;;;;;1.50;1.40;;;;;;;30.11;51.33;99436.94;5070440;28;20676;-65
2023/07/08 07:13:11;;;;;;;0.90;0.90;;;;;;;30.12;51.30;99454.47;5069064;28;20208;-64
2023/07/08 07:15:37;;;;;;;0.70;0.70;;;;;;;30.18;51.30;99448.50;5069018;28;20208;-65
2023/07/08 07:18:04;;;;;;;0.77;0.77;;;;;;;30.28;52.60;99460.69;5068342;28;20711;-65
2023/07/08 07:20:32;;;;;;;0.40;0.40;;;;;;;30.16;52.35;99461.06;5071224;28;20207;-65
2023/07/08 07:22:58;;;;;;;0.55;0.55;;;;;;;30.16;51.46;99455.78;5073540;28;20196;-65
2023/07/08 07:25:27;;;;;;;1.35;0.85;;;;;;;30.39;50.29;99458.50;5073678;28;20207;-64
2023/07/08 07:27:53;;;;;;;1.58;0.90;;;;;;;30.76;52.82;99451.78;5073253;28;20216;-64
2023/07/08 07:30:20;;;;;;;0.80;0.80;;;;;;;30.76;50.85;99454.44;5073284;28;20199;-65
2023/07/08 07:32:47;;;;;;;0.50;0.50;;;;;;;30.81;51.24;99452.91;5073360;28;20211;-64
2023/07/08 07:35:15;;;;;;;0.85;0.85;;;;;;;30.88;49.49;99460.97;5073016;28;20210;-64
2023/07/08 07:37:43;;;;;;;0.65;0.65;;;;;;;30.84;47.39;99460.50;5073641;28;20218;-64
2023/07/08 07:40:12;;;;;;;0.63;0.50;;;;;;;30.85;49.79;99451.56;5069634;28;20227;-65
2023/07/08 07:42:41;;;;;;;1.00;1.00;;;;;;;31.05;48.99;99460.72;5072935;28;20211;-65
2023/07/08 07:45:09;;;;;;;0.93;0.63;;;;;;;31.12;47.33;99468.78;5071244;28;20610;-65
2023/07/08 07:47:39;;;;;;;0.63;0.63;;;;;;;31.08;46.70;99473.59;5071607;28;20703;-65
2023/07/08 07:50:07;;;;;;;0.65;0.63;;;;;;;31.11;48.03;99478.56;5072222;28;20195;-65
2023/07/08 07:52:34;;;;;;;0.80;0.80;;;;;;;30.84;48.15;99475.53;5073398;28;20595;-65
2023/07/08 07:55:02;;;;;;;0.70;0.70;;;;;;;30.99;48.77;99464.06;5073565;28;20203;-65
2023/07/08 07:57:28;;;;;;;0.60;0.60;;;;;;;30.72;48.10;99469.81;5072973;28;20203;-65
2023/07/08 07:59:56;;;;;;;0.50;0.50;;;;;;;30.50;48.40;99478.53;5073055;28;20234;-65
2023/07/08 08:02:23;;;;;;;0.80;0.80;;;;;;;30.45;49.52;99476.38;5073177;28;20200;-65
2023/07/08 08:04:50;;;;;;;1.45;0.70;;;;;;;30.34;50.88;99471.41;5073020;28;20196;-64
2023/07/08 08:07:17;;;;;;;0.50;0.50;;;;;;;30.21;50.05;99479.88;5072911;28;20196;-64
2023/07/08 08:09:43;;;;;;;0.60;0.60;;;;;;;30.31;49.92;99479.69;5072559;28;20192;-65
2023/07/08 08:12:12;;;;;;;1.20;1.10;;;;;;;30.07;48.36;99472.66;5073104;28;20200;-64
2023/07/08 08:14:39;;;;;;;0.63;0.63;;;;;;;30.36;51.32;99469.44;5072439;28;20212;-65
2023/07/08 08:17:07;;;;;;;0.60;0.60;;;;;;;30.73;51.44;99474.09;5072224;28;20232;-66
2023/07/08 08:19:34;;;;;;;0.50;0.50;;;;;;;30.71;48.83;99473.47;5072364;28;20249;-66
2023/07/08 08:22:01;;;;;;;0.57;0.57;;;;;;;30.93;48.95;99477.97;5072844;28;20196;-66
2023/07/08 08:24:28;;;;;;;0.80;0.80;;;;;;;31.28;48.38;99479.25;5072763;28;20196;-66
2023/07/08 08:26:54;;;;;;;0.93;0.93;;;;;;;31.52;44.12;99468.53;5072760;28;20261;-66
2023/07/08 08:29:21;;;;;;;0.70;0.70;;;;;;;31.77;45.53;99474.44;5073246;28;20218;-66
2023/07/08 08:31:48;;;;;;;0.60;0.60;;;;;;;31.93;46.42;99474.28;5067536;28;20212;-66
2023/07/08 08:34:16;;;;;;;0.68;0.68;;;;;;;31.95;43.29;99480.25;5072878;28;20200;-66
2023/07/08 08:36:44;;;;;;;0.57;0.57;;;;;;;31.53;43.58;99487.91;5072616;28;20646;-66
2023/07/08 08:39:11;;;;;;;0.47;0.47;;;;;;;31.39;44.55;99480.69;5072644;28;20204;-66
2023/07/08 08:41:40;;;;;;;0.82;0.82;;;;;;;31.44;44.23;99479.13;5072599;28;20204;-66
2023/07/08 08:44:11;;;;;;;1.55;0.50;;;;;;;31.13;44.78;99471.25;5072320;28;20203;-66
2023/07/08 08:46:44;;;;;;;0.70;0.70;;;;;;;30.98;45.39;99488.09;5072593;28;20207;-66
2023/07/08 08:49:24;;;;;;;0.70;0.70;;;;;;;30.89;45.41;99492.53;5071932;28;20216;-66
2023/07/08 08:51:52;;;;;;;0.90;0.43;;;;;;;31.01;45.45;99498.31;5072281;28;20584;-66
2023/07/08 08:54:19;;;;;;;0.50;0.50;;;;;;;30.96;46.53;99485.59;5072243;28;20206;-66
2023/07/08 08:56:54;;;;;;;0.60;0.60;;;;;;;31.10;46.14;99498.09;5072172;28;20196;-66
2023/07/08 08:59:32;;;;;;;0.52;0.52;;;;;;;31.21;44.32;99495.03;5072067;28;20199;-66
2023/07/08 09:02:01;;;;;;;0.90;0.77;;;;;;;31.21;45.35;99487.09;5072422;28;20200;-66
2023/07/08 09:04:34;;;;;;;0.52;0.50;;;;;;;30.90;44.88;99502.16;5072107;28;20210;-66
2023/07/08 09:07:07;;;;;;;0.40;0.40;;;;;;;30.78;44.26;99498.25;5071689;28;20204;-66
2023/07/08 09:09:39;;;;;;;0.80;0.80;;;;;;;30.64;44.62;99506.91;5069784;28;20277;-66
2023/07/08 09:12:12;;;;;;;1.20;0.73;;;;;;;30.55;45.29;99506.13;5071385;28;20195;-66
2023/07/08 09:14:39;;;;;;;0.75;0.75;;;;;;;30.54;45.78;99500.97;5071808;28;20192;-66
2023/07/08 09:17:18;;;;;;;0.55;0.52;;;;;;;30.49;46.15;99492.75;5071476;28;20216;-66
2023/07/08 09:19:56;;;;;;;0.57;0.57;;;;;;;30.50;46.58;99505.00;5071431;28;20624;-65
2023/07/08 09:22:33;;;;;;;0.80;0.80;;;;;;;30.74;46.57;99486.34;5071426;28;20204;-66
2023/07/08 09:25:05;;;;;;;0.40;0.40;;;;;;;30.88;45.54;99485.63;5071643;28;20199;-65
2023/07/08 09:27:32;;;;;;;0.55;0.55;;;;;;;30.85;44.01;99491.25;5071218;28;20245;-66
2023/07/08 09:29:58;;;;;;;0.60;0.60;;;;;;;30.66;45.20;99481.91;5071480;28;20216;-70
2023/07/08 09:32:28;;;;;;;0.75;0.75;;;;;;;30.69;45.72;99484.25;5071028;28;20196;-65
2023/07/08 09:34:57;;;;;;;0.50;0.50;;;;;;;30.56;45.97;99462.78;5069109;28;20257;-66
2023/07/08 09:37:28;;;;;;;1.52;0.60;;;;;;;30.55;46.03;99486.75;5064003;28;20201;-65
2023/07/08 09:39:56;;;;;;;0.88;0.88;;;;;;;30.75;45.25;99477.41;5070502;28;20197;-65
2023/07/08 09:42:27;;;;;;;0.50;0.50;;;;;;;30.90;44.29;99475.66;5068061;28;20211;-65
2023/07/08 09:44:57;;;;;;;3.75;0.80;;;;;;;30.96;44.76;99471.53;5063824;28;20246;-65
2023/07/08 09:47:28;;;;;;;0.73;0.63;;;;;;;31.14;44.83;99472.09;5068979;28;20632;-65
2023/07/08 09:49:56;;;;;;;0.50;0.50;;;;;;;31.13;43.08;99465.97;5064609;28;20234;-65
2023/07/08 09:52:23;;;;;;;0.45;0.45;;;;;;;31.22;44.10;99453.47;5068736;28;20204;-65
2023/07/08 09:54:50;;;;;;;0.50;0.50;;;;;;;31.42;43.35;99459.13;5070618;28;20231;-65
2023/07/08 09:57:27;;;;;;;0.50;0.50;;;;;;;31.40;44.55;99456.66;5070763;28;20577;-65
2023/07/08 10:00:02;;;;;;;2.10;0.60;;;;;;;31.49;43.25;99454.78;5066713;28;20250;-65
2023/07/08 10:02:33;;;;;;;0.57;0.55;;;;;;;31.72;43.32;99450.28;5067652;28;20290;-65
2023/07/08 10:05:08;;;;;;;0.55;0.55;;;;;;;31.89;42.84;99445.66;5065257;28;20575;-65
2023/07/08 10:07:36;;;;;;;0.82;0.82;;;;;;;32.00;44.75;99446.03;5069712;28;20667;-65
2023/07/08 10:10:08;;;;;;;1.27;0.50;;;;;;;32.09;43.30;99446.78;5070068;28;20216;-65
2023/07/08 10:12:37;;;;;;;0.45;0.43;;;;;;;32.19;42.79;99452.63;5067608;28;20207;-65
2023/07/08 10:15:25;;;;;;;0.50;0.50;;;;;;;32.20;41.88;99428.59;5069838;28;20230;-65
2023/07/08 10:17:53;;;;;;;0.70;0.70;;;;;;;32.27;40.90;99425.19;5067399;28;20230;-64
2023/07/08 10:20:23;;;;;;;0.57;0.57;;;;;;;32.38;42.18;99440.63;5066815;28;20626;-65
2023/07/08 10:23:03;;;;;;;0.80;0.80;;;;;;;32.43;42.60;99427.66;5069549;28;20207;-65
2023/07/08 10:25:40;;;;;;;0.68;0.68;;;;;;;32.58;44.25;99415.22;5069730;28;20208;-65
2023/07/08 10:28:23;;;;;;;0.60;0.60;;;;;;;32.61;42.31;99426.28;5069819;28;20207;-65
2023/07/08 10:31:06;;;;;;;0.60;0.60;;;;;;;32.73;42.11;99430.09;5067786;28;20289;-65
2023/07/08 10:33:51;;;;;;;0.80;0.80;;;;;;;32.81;41.57;99431.81;5068341;28;20214;-65
2023/07/08 10:36:29;;;;;;;0.60;0.60;;;;;;;32.81;40.02;99405.25;5068070;28;20253;-65
2023/07/08 10:39:16;;;;;;;0.40;0.40;;;;;;;32.92;41.12;99420.72;5069012;28;20207;-65
2023/07/08 10:41:54;;;;;;;0.98;0.70;;;;;;;32.94;41.53;99405.41;5069518;28;20207;-65
2023/07/08 10:44:27;;;;;;;0.60;0.60;;;;;;;32.91;39.97;99405.78;5064025;28;20199;-65
2023/07/08 10:47:09;;;;;;;0.45;0.45;;;;;;;32.87;40.34;99404.50;5069852;28;20208;-65
2023/07/08 10:49:52;;;;;;;0.55;0.55;;;;;;;32.95;40.25;99399.09;5070521;28;20223;-64
2023/07/08 10:52:47;;;;;;;0.50;0.50;;;;;;;32.88;41.93;99389.38;5063865;28;20192;-65
2023/07/08 10:55:28;;;;;;;0.40;0.40;;;;;;;32.90;40.66;99388.19;5071330;28;20207;-65
2023/07/08 10:58:21;;;;;;;0.60;0.60;;;;;;;33.00;40.53;99391.34;5074051;28;20277;-65
2023/07/08 11:00:57;;;;;;;1.00;0.52;;;;;;;32.95;39.65;99391.13;5070442;28;20201;-65
2023/07/08 11:03:42;;;;;;;1.08;0.40;;;;;;;32.97;40.11;99383.75;5067055;28;20203;-65
2023/07/08 11:06:15;;;;;;;0.40;0.40;;;;;;;32.91;39.14;99383.69;5073636;28;20208;-65
2023/07/08 11:08:51;;;;;;;0.52;0.52;;;;;;;32.92;39.58;99396.81;5066147;28;20289;-65
2023/07/08 11:11:31;;;;;;;0.77;0.77;;;;;;;32.84;40.07;99380.97;5063260;28;20200;-65
2023/07/08 11:14:05;;;;;;;1.10;1.08;;;;;;;32.88;40.80;99387.56;5072146;28;20212;-65
2023/07/08 11:16:36;;;;;;;1.10;0.75;;;;;;;32.87;39.74;99385.91;5066309;28;20228;-65
2023/07/08 11:19:08;;;;;;;0.90;0.90;;;;;;;32.84;39.72;99375.66;5069633;28;20681;-65
2023/07/08 11:21:41;;;;;;;1.45;0.60;;;;;;;32.84;42.90;99370.34;5072243;28;20196;-65
2023/07/08 11:24:19;;;;;;;0.55;0.50;;;;;;;32.87;40.35;99372.63;5068720;28;20219;-64
2023/07/08 11:26:50;;;;;;;1.35;0.85;;;;;;;32.98;42.00;99369.47;5070789;28;20210;-65
2023/07/08 11:29:21;;;;;;;0.60;0.60;;;;;;;33.02;41.01;99381.34;5071368;28;20220;-65
2023/07/08 11:31:49;;;;;;;1.83;1.73;;;;;;;33.04;41.09;99366.06;5070017;28;20791;-69
2023/07/08 11:34:19;;;;;;;1.60;1.20;;;;;;;33.35;42.09;99365.72;5065110;28;21059;-66
2023/07/08 11:36:47;;;;;;;0.52;0.52;;;;;;;33.58;39.77;99360.16;5067498;28;20204;-68
2023/07/08 11:39:34;;;;;;;0.68;0.68;;;;;;;33.46;41.32;99372.34;5066720;28;20249;-68
2023/07/08 11:42:18;;;;;;;0.50;0.50;;;;;;;33.53;39.06;99378.53;5065694;28;20300;-68
2023/07/08 11:44:49;;;;;;;2.28;2.17;;;;;;;33.48;38.56;99359.69;5065506;28;20196;-68